Latest Weather Observations for Amberley

IDQ60801

Issued at 3:05 pm EST Friday 25 April 2014 (issued every 30 minutes, with the page automatically refreshed every 10 minutes)

About weather observations | Map of weather stations | Latest weather observations for QLD | Other Formats
Station Details ID: 040004 Name: AMBERLEY AMO Lat: -27.63 Lon: 152.71 Height: 24.2 m
Data from the previous 72 hours. | See also: Recent months at Amberley
Date/Time
EST
Temp
°C
App
Temp
°C
Dew
Point
Rel
Hum
%
Delta-T
°C
Wind Press
QNH
hPa
Press
MSL
hPa
Rain
since 9 am
mm
Dir
 
Spd
km/h
Gust
km/h
Spd
kts
Gust
kts
25/03:00pm 28.4 27.3 12.0 36 9.5 E 9 17 5 9 1015.1 1015.0 0.0
25/02:30pm 28.7 28.1 13.6 39 9.0 NE 9 15 5 8 1015.1 - 0.0
25/02:00pm 28.3 27.8 13.9 41 8.6 ENE 9 13 5 7 1015.4 - 0.0
25/01:30pm 27.7 28.0 14.6 44 7.9 SSE 6 11 3 6 1015.9 - 0.0
25/01:00pm 27.8 27.5 14.5 44 8.0 ENE 9 15 5 8 1016.2 - 0.0
25/12:30pm 27.1 26.6 13.8 44 7.9 ENE 9 15 5 8 1016.7 - 0.0
25/12:00pm 26.4 26.9 13.9 46 7.4 NNE 4 11 2 6 1017.3 1017.2 0.0
25/11:30am 25.8 26.1 14.4 49 6.8 N 6 9 3 5 1017.9 - 0.0
25/11:00am 24.7 25.1 15.2 55 5.7 WNW 7 15 4 8 1018.3 - 0.0
25/10:30am 23.8 25.6 16.4 63 4.5 NE 2 7 1 4 1018.6 - 0.0
25/10:00am 22.9 24.8 17.6 72 3.3 NNW 4 7 2 4 1019.0 - 0.0
25/09:30am 21.5 22.4 16.5 73 3.0 NW 7 9 4 5 1019.2 - 0.0
25/09:00am 19.9 21.2 16.2 79 2.2 SSW 4 7 2 4 1019.2 1019.1 0.0
25/08:30am 18.0 19.5 15.6 86 1.4 SSW 2 7 1 4 1019.3 - 0.0
25/08:00am 16.9 18.5 15.0 88 1.1 CALM 0 0 0 0 1019.0 - 0.0
25/07:30am 14.7 15.8 13.6 93 0.6 CALM 0 0 0 0 1018.5 - 0.0
25/07:00am 12.6 13.2 12.0 96 0.3 CALM 0 0 0 0 1017.9 - 0.0
25/06:55am 12.4 13.0 11.8 96 0.3 CALM 0 0 0 0 1017.8 - 0.0
25/06:30am 11.6 12.0 11.2 97 0.2 CALM 0 0 0 0 1017.4 - 0.0
25/06:00am 11.7 12.1 11.3 97 0.2 NNW 0 0 0 0 1017.0 1016.9 0.0
25/05:37am 12.4 13.0 11.8 96 0.3 CALM 0 0 0 0 1016.7 - 0.0
25/05:30am 12.7 13.4 12.3 97 0.2 CALM 0 0 0 0 1016.6 - 0.0
25/05:28am 12.8 13.6 12.4 97 0.2 CALM 0 0 0 0 1016.6 - 0.0
25/05:00am 12.4 13.1 12.2 99 0.1 CALM 0 0 0 0 1016.4 - 0.0
25/04:30am 12.6 11.8 11.8 95 0.4 NW 7 9 4 5 1016.3 - 0.0
25/04:00am 13.2 14.0 12.6 96 0.3 CALM 0 0 0 0 1016.0 - 0.0
25/03:30am 12.6 13.2 11.8 95 0.4 CALM 0 0 0 0 1016.0 - 0.0
25/03:27am 12.6 13.4 12.4 99 0.1 CALM 0 0 0 0 1015.9 - 0.0
25/03:00am 13.9 14.5 13.2 96 0.4 WNW 2 6 1 3 1015.7 1015.6 0.0
25/02:40am 12.8 13.5 12.1 95 0.4 CALM 0 0 0 0 1015.7 - 0.0
25/02:30am 13.0 13.8 12.6 97 0.2 CALM 0 0 0 0 1015.8 - 0.0
25/02:00am 14.0 15.0 13.3 96 0.4 CALM 0 0 0 0 1015.9 - 0.0
25/01:30am 14.2 14.2 13.5 96 0.4 NNW 6 7 3 4 1016.2 - 0.0
25/01:00am 14.4 15.6 13.9 97 0.3 CALM 0 0 0 0 1016.4 - 0.0
25/12:30am 14.9 16.2 14.0 94 0.5 CALM 0 0 0 0 1016.5 - 0.0
25/12:00am 15.5 17.0 14.6 94 0.5 WSW 0 0 0 0 1016.6 1016.5 0.0
 
Date/Time
EST
Temp
°C
App
Temp
°C
Dew
Point
Rel
Hum
%
Delta-T
°C
Wind Press
QNH
hPa
Press
MSL
hPa
Rain
since 9 am
mm
Dir
 
Spd
km/h
Gust
km/h
Spd
kts
Gust
kts
24/11:30pm 15.9 17.4 14.7 93 0.7 CALM 0 0 0 0 1016.7 - 0.0
24/11:00pm 15.5 17.0 14.6 94 0.5 CALM 0 0 0 0 1016.6 - 0.0
24/10:30pm 16.0 17.6 15.0 94 0.6 CALM 0 0 0 0 1016.6 - 0.0
24/10:00pm 17.2 18.9 15.3 88 1.1 CALM 0 0 0 0 1016.5 - 0.0
24/09:30pm 18.0 19.4 15.4 85 1.5 E 2 7 1 4 1016.2 - 0.0
24/09:00pm 17.7 18.0 15.1 85 1.5 E 7 9 4 5 1016.3 1016.2 0.0
24/08:30pm 20.3 21.1 15.8 75 2.7 E 6 7 3 4 1016.1 - 0.0
24/08:00pm 21.1 21.7 15.4 70 3.4 ENE 6 7 3 4 1015.6 - 0.0
24/07:30pm 22.0 21.7 15.5 66 3.9 E 11 15 6 8 1015.6 - 0.0
24/07:00pm 22.7 21.8 14.9 61 4.6 E 13 15 7 8 1015.3 - 0.0
24/06:30pm 22.9 22.5 15.2 62 4.6 ENE 11 13 6 7 1014.8 - 0.0
24/06:00pm 23.9 22.8 15.4 59 5.1 ENE 15 20 8 11 1014.2 1014.1 0.0
24/05:30pm 24.3 24.3 13.7 51 6.2 NE 6 9 3 5 1013.8 - 0.0
24/05:00pm 25.5 25.2 13.2 46 7.2 NNE 7 9 4 5 1013.6 - 0.0
24/04:30pm 26.5 25.7 12.8 42 8.0 NNE 9 13 5 7 1013.6 - 0.0
24/04:00pm 27.7 26.8 12.6 39 8.8 NNE 9 13 5 7 1013.3 - 0.0
24/03:30pm 28.2 28.4 12.9 38 9.0 N 4 9 2 5 1013.1 - 0.0
24/03:00pm 28.3 28.1 13.0 39 9.0 NNW 6 9 3 5 1013.2 1013.1 0.0
24/02:30pm 28.5 28.6 14.0 41 8.7 NNE 6 9 3 5 1013.4 - 0.0
24/02:00pm 28.8 29.1 14.4 41 8.7 ESE 6 11 3 6 1013.7 - 0.0
24/01:30pm 27.8 27.3 13.7 42 8.4 NE 9 15 5 8 1014.1 - 0.0
24/01:00pm 27.9 27.7 14.6 44 8.0 N 9 15 5 8 1014.4 - 0.0
24/12:30pm 27.0 26.9 14.9 47 7.3 N 9 15 5 8 1015.0 - 0.0
24/12:00pm 26.6 27.2 15.8 51 6.6 NNW 7 15 4 8 1015.6 1015.5 0.0
24/11:30am 26.0 26.4 14.8 50 6.7 NW 6 13 3 7 1016.1 - 0.0
24/11:00am 25.3 26.3 16.3 57 5.5 SSW 6 11 3 6 1016.5 - 0.0
24/10:30am 24.2 25.3 16.7 63 4.6 WSW 6 11 3 6 1017.2 - 0.0
24/10:00am 23.1 24.3 16.9 68 3.8 NNW 6 9 3 5 1017.7 - 0.0
24/09:30am 22.1 23.5 16.5 70 3.4 NW 4 11 2 6 1018.1 - 0.0
24/09:00am 20.4 21.2 16.4 78 2.4 WNW 7 11 4 6 1018.1 1018.0 0.0
24/08:30am 19.3 20.0 16.1 82 1.9 NNW 7 9 4 5 1018.2 - 0.0
24/08:00am 17.2 18.9 15.1 87 1.2 CALM 0 0 0 0 1018.2 - 0.0
24/07:30am 15.2 16.4 13.8 91 0.8 CALM 0 0 0 0 1017.8 - 0.0
24/07:00am 12.9 13.6 12.2 95 0.4 CALM 0 0 0 0 1017.2 - 0.0
24/06:30am 11.2 11.4 10.6 96 0.3 CALM 0 0 0 0 1016.8 - 0.0
24/06:00am 12.1 12.6 11.5 96 0.3 CALM 0 0 0 0 1016.6 1016.5 0.0
24/05:30am 11.7 12.1 11.3 97 0.2 CALM 0 0 0 0 1016.3 - 0.0
24/05:28am 11.8 12.2 11.2 96 0.3 CALM 0 0 0 0 1016.3 - 0.0
24/05:00am 10.5 10.6 10.1 97 0.2 CALM 0 0 0 0 1016.5 - 0.0
24/04:45am 11.2 10.7 10.8 97 0.2 SW 4 7 2 4 1016.2 - 0.0
24/04:40am 11.6 10.7 11.4 99 0.1 SW 7 9 4 5 1016.1 - 0.0
24/04:30am 12.1 11.3 11.7 97 0.2 SW 7 7 4 4 1016.0 - 0.0
24/04:08am 12.2 12.4 11.8 97 0.2 WNW 2 7 1 4 1016.1 - 0.0
24/04:01am 12.5 13.2 12.3 99 0.1 CALM 0 0 0 0 1016.1 - 0.0
24/04:00am 12.5 13.3 12.5 100 0.0 CALM 0 0 0 0 1016.1 - 0.0
24/03:30am 12.1 12.6 11.7 97 0.2 CALM 0 0 0 0 1016.1 - 0.0
24/03:17am 11.9 12.4 11.5 97 0.2 CALM 0 0 0 0 1016.2 - 0.0
24/03:00am 13.0 13.7 12.3 95 0.4 CALM 0 0 0 0 1016.2 1016.1 0.0
24/02:34am 12.9 13.6 12.3 96 0.3 CALM 0 0 0 0 1016.3 - 0.0
24/02:30am 12.8 13.5 12.2 96 0.3 CALM 0 0 0 0 1016.3 - 0.0
24/02:13am 12.7 13.4 12.1 96 0.3 CALM 0 0 0 0 1016.4 - 0.0
24/02:00am 12.9 13.6 12.2 95 0.4 CALM 0 0 0 0 1016.4 - 0.0
24/01:30am 13.2 14.0 12.5 95 0.4 CALM 0 0 0 0 1016.7 - 0.0
24/01:00am 13.8 14.0 12.9 94 0.5 NNW 4 7 2 4 1017.0 - 0.0
24/12:30am 13.3 12.4 12.7 96 0.3 NW 9 11 5 6 1017.2 - 0.0
24/12:00am 14.4 15.4 13.3 93 0.6 CALM 0 0 0 0 1017.4 1017.3 0.0
 
Date/Time
EST
Temp
°C
App
Temp
°C
Dew
Point
Rel
Hum
%
Delta-T
°C
Wind Press
QNH
hPa
Press
MSL
hPa
Rain
since 9 am
mm
Dir
 
Spd
km/h
Gust
km/h
Spd
kts
Gust
kts
23/11:30pm 14.6 15.8 13.7 94 0.5 CALM 0 0 0 0 1017.6 - 0.0
23/11:00pm 14.8 16.2 14.3 97 0.3 CALM 0 0 0 0 1017.8 - 0.0
23/10:30pm 15.3 16.6 14.2 93 0.6 CALM 0 0 0 0 1017.9 - 0.0
23/10:00pm 15.3 16.6 14.1 92 0.7 CALM 0 0 0 0 1017.6 - 0.0
23/09:30pm 15.7 16.9 13.7 88 1.1 CALM 0 0 0 0 1017.6 - 0.0
23/09:00pm 17.1 18.4 14.1 82 1.7 CALM 0 0 0 0 1017.3 1017.2 0.0
23/08:30pm 18.7 20.3 14.9 78 2.2 CALM 0 0 0 0 1017.3 - 0.0
23/08:00pm 19.1 20.7 14.8 76 2.5 CALM 0 0 0 0 1017.2 - 0.0
23/07:30pm 20.1 21.7 15.0 72 3.0 CALM 0 0 0 0 1016.9 - 0.0
23/07:00pm 21.4 21.7 15.0 67 3.8 NE 7 7 4 4 1016.8 - 0.0
23/06:30pm 22.2 21.6 14.5 61 4.5 NE 11 15 6 8 1016.4 - 0.0
23/06:00pm 22.8 21.0 12.0 50 6.1 NE 13 15 7 8 1016.1 1016.0 0.0
23/05:30pm 23.4 21.7 9.8 42 7.4 NNE 9 11 5 6 1015.7 - 0.0
23/05:00pm 25.6 23.4 8.0 32 9.4 NNE 9 11 5 6 1015.5 - 0.0
23/04:30pm 26.9 25.5 9.5 33 9.6 ENE 7 9 4 5 1015.3 - 0.0
23/04:00pm 28.0 28.0 9.9 32 10.1 CALM 0 0 0 0 1015.2 - 0.0
23/03:30pm 27.4 26.3 10.0 33 9.7 NW 6 11 3 6 1015.2 - 0.0
23/03:00pm 26.9 25.5 9.5 33 9.6 NNW 7 11 4 6 1015.4 1015.3 0.0
23/02:30pm 27.7 26.2 10.7 34 9.6 N 9 13 5 7 1015.6 - 0.0
23/02:00pm 27.5 25.8 9.7 32 9.9 N 9 13 5 7 1015.7 - 0.0
23/01:30pm 27.2 26.4 11.0 36 9.2 NW 6 13 3 7 1015.9 - 0.0
23/01:00pm 26.9 25.9 12.4 40 8.4 N 9 15 5 8 1016.3 - 0.0
23/12:30pm 27.0 26.9 13.4 43 8.0 W 6 11 3 6 1016.8 - 0.0
23/12:00pm 26.6 27.1 15.0 49 7.0 NW 6 13 3 7 1017.4 1017.3 0.0
23/11:30am 25.9 25.7 13.7 47 7.2 NNW 7 13 4 7 1018.2 - 0.0
23/11:00am 24.9 25.6 16.0 57 5.4 W 7 11 4 6 1018.8 - 0.0
23/10:30am 23.6 24.3 15.6 61 4.8 W 6 9 3 5 1019.3 - 0.0
23/10:00am 22.8 24.1 16.2 66 4.0 NNW 4 9 2 5 1019.5 - 0.0
23/09:30am 21.0 22.1 15.6 71 3.2 SW 4 9 2 5 1019.9 - 0.0
23/09:00am 20.2 21.9 15.3 73 2.9 CALM 0 2 0 1 1020.2 1020.1 0.0
23/08:30am 17.9 19.0 14.6 81 1.9 W 2 7 1 4 1020.2 - 0.0
23/08:00am 15.6 16.2 14.2 91 0.8 WSW 4 7 2 4 1020.4 - 0.0
23/07:30am 14.1 14.7 13.0 93 0.6 SW 2 6 1 3 1020.2 - 0.0
23/07:00am 12.9 13.2 12.2 95 0.4 SW 2 6 1 3 1020.0 - 0.0
23/06:29am 12.3 11.4 11.5 95 0.4 SW 7 9 4 5 1019.7 - 0.0
23/06:00am 12.5 13.2 12.1 97 0.2 CALM 0 0 0 0 1019.5 1019.4 0.0
23/05:30am 13.0 13.8 12.4 96 0.3 CALM 0 0 0 0 1019.2 - 0.0
23/05:00am 12.3 12.9 11.9 97 0.2 CALM 0 0 0 0 1019.1 - 0.0
23/04:42am 12.5 13.1 11.9 96 0.3 CALM 0 0 0 0 1019.0 - 0.0
23/04:30am 12.8 13.5 12.2 96 0.3 CALM 0 0 0 0 1018.7 - 0.0
23/04:23am 13.2 14.1 12.8 97 0.2 CALM 0 0 0 0 1018.7 - 0.0
23/04:00am 13.0 13.7 12.1 94 0.5 CALM 0 0 0 0 1018.4 - 0.0
23/03:30am 13.2 14.0 12.5 95 0.4 CALM 0 0 0 0 1018.3 - 0.0
23/03:00am 13.4 14.3 12.8 96 0.3 CALM 0 0 0 0 1018.2 1018.1 0.0
23/02:30am 13.4 14.3 13.0 97 0.2 CALM 0 0 0 0 1018.6 - 0.0
23/02:00am 13.7 14.7 13.2 97 0.3 CALM 0 0 0 0 1018.6 - 0.0
23/01:30am 13.9 15.0 13.4 97 0.3 CALM 0 0 0 0 1019.0 - 0.0
23/01:00am 13.8 14.8 13.3 97 0.3 CALM 0 0 0 0 1019.2 - 0.0
23/12:30am 14.4 15.4 13.3 93 0.6 CALM 0 0 0 0 1019.3 - 0.0
23/12:00am 14.0 15.0 13.3 96 0.4 CALM 0 6 0 3 1019.3 1019.2 0.0
 
Date/Time
EST
Temp
°C
App
Temp
°C
Dew
Point
Rel
Hum
%
Delta-T
°C
Wind Press
QNH
hPa
Press
MSL
hPa
Rain
since 9 am
mm
Dir
 
Spd
km/h
Gust
km/h
Spd
kts
Gust
kts
22/11:30pm 14.6 15.3 13.5 93 0.6 SW 2 7 1 4 1019.4 - 0.0
22/11:00pm 15.1 16.3 13.9 92 0.7 CALM 0 0 0 0 1019.5 - 0.0
22/10:30pm 15.3 16.5 13.7 90 0.9 CALM 0 0 0 0 1019.6 - 0.0
22/10:00pm 14.9 16.0 13.5 91 0.8 CALM 0 0 0 0 1019.6 - 0.0
22/09:30pm 15.8 17.1 14.0 89 1.0 CALM 0 0 0 0 1019.6 - 0.0
22/09:00pm 17.1 18.5 14.5 85 1.5 CALM 0 0 0 0 1019.5 1019.4 0.0
22/08:30pm 17.3 17.8 14.1 81 1.8 E 4 7 2 4 1019.5 - 0.0
22/08:00pm 20.1 21.7 15.0 72 3.0 CALM 0 7 0 4 1019.4 - 0.0
22/07:30pm 21.1 21.4 14.6 66 3.8 ENE 6 9 3 5 1019.2 - 0.0
22/07:00pm 21.5 20.4 14.3 63 4.2 ENE 13 17 7 9 1019.0 - 0.0
22/06:30pm 22.0 20.7 13.7 59 4.8 ENE 13 19 7 10 1018.8 - 0.0
22/06:00pm 22.5 21.1 13.3 56 5.3 ENE 13 17 7 9 1018.4 1018.3 0.0
22/05:30pm 23.4 21.9 13.0 52 6.0 NE 13 17 7 9 1018.3 - 0.0
22/05:00pm 24.2 22.3 12.9 49 6.5 NE 15 19 8 10 1018.1 - 0.0
22/04:30pm 25.5 23.2 11.6 41 7.9 NE 15 20 8 11 1017.9 - 0.0
22/04:00pm 26.5 24.2 11.8 40 8.4 NE 15 20 8 11 1017.8 - 0.0
22/03:30pm 26.3 23.3 11.8 40 8.3 NE 19 20 10 11 1017.9 - 0.0

Other Formats:

Comma delimited format used in spreadsheet applications
http://www.bom.gov.au/fwo/IDQ60801/IDQ60801.94568.axf

JavaScript Object Notation format (JSON) in row-major order
http://www.bom.gov.au/fwo/IDQ60801/IDQ60801.94568.json